Time;durP1;ratioP1;P1;durP2;ratioP2;P2;SDS_P1;SDS_P2;PMS_P1;PMS_P2;Temp;Humidity;BMP_temperature;BMP_pressure;BME280_temperature;BME280_humidity;BME280_pressure;Samples;Min_cycle;Max_cycle;Signal;HPM_P1;HPM_P2
2022/03/14 00:01:40;;;;;;;14.60;10.15;;;9.40;97.00;;;;;;4997881;28;20049;-86
2022/03/14 00:04:17;;;;;;;20.05;10.55;;;8.70;97.20;;;;;;4996961;28;20050;-85
2022/03/14 00:06:47;;;;;;;13.45;9.93;;;8.80;97.80;;;;;;5012892;28;20145;-84
2022/03/14 00:09:12;;;;;;;15.55;10.90;;;9.00;97.90;;;;;;4996179;28;20124;-84
2022/03/14 00:11:38;;;;;;;17.50;11.40;;;8.90;98.20;;;;;;4996313;28;20540;-85
2022/03/14 00:14:07;;;;;;;19.15;11.23;;;8.50;98.50;;;;;;5011470;28;20045;-85
2022/03/14 00:16:37;;;;;;;16.13;10.73;;;8.30;98.80;;;;;;4995663;28;20052;-84
2022/03/14 00:19:05;;;;;;;17.75;11.13;;;8.30;99.10;;;;;;5012517;28;20049;-84
2022/03/14 00:21:33;;;;;;;21.80;11.25;;;8.30;99.50;;;;;;4996081;28;20084;-85
2022/03/14 00:24:02;;;;;;;15.90;11.23;;;9.20;99.90;;;;;;4996852;28;20046;-85
2022/03/14 00:26:28;;;;;;;16.20;11.38;;;8.40;99.90;;;;;;4996253;28;20053;-85
2022/03/14 00:28:54;;;;;;;18.40;10.77;;;8.70;99.90;;;;;;4995903;28;20088;-85
2022/03/14 00:31:20;;;;;;;19.85;11.00;;;8.70;99.90;;;;;;4995465;28;20049;-84
2022/03/14 00:33:46;;;;;;;24.23;12.63;;;8.60;99.90;;;;;;4995994;28;20128;-84
2022/03/14 00:36:12;;;;;;;16.58;10.85;;;8.60;99.90;;;;;;4995717;28;20128;-85
2022/03/14 00:38:39;;;;;;;16.67;11.32;;;8.10;99.90;;;;;;5011612;28;20076;-84
2022/03/14 00:41:08;;;;;;;16.48;11.45;;;8.50;99.90;;;;;;4994765;28;20089;-84
2022/03/14 00:43:35;;;;;;;20.70;12.88;;;8.60;99.90;;;;;;4995963;28;20046;-85
2022/03/14 00:46:01;;;;;;;17.20;11.70;;;8.40;99.90;;;;;;4995892;28;20045;-86
2022/03/14 00:48:27;;;;;;;19.70;12.23;;;8.50;99.90;;;;;;4994974;28;20417;-85
2022/03/14 00:50:53;;;;;;;16.08;11.38;;;8.30;99.90;;;;;;4995914;28;20539;-85
2022/03/14 00:53:25;;;;;;;16.95;11.88;;;8.60;99.90;;;;;;5011680;28;20045;-84
2022/03/14 00:55:51;;;;;;;22.38;13.05;;;8.00;99.90;;;;;;4994558;28;20076;-85
2022/03/14 00:58:17;;;;;;;18.27;12.02;;;8.60;99.90;;;;;;4994477;28;20045;-84
2022/03/14 01:00:43;;;;;;;21.48;12.10;;;7.90;99.90;;;;;;4996098;28;20048;-85
2022/03/14 01:03:09;;;;;;;15.80;11.68;;;7.90;99.90;;;;;;5011105;28;20080;-85
2022/03/14 01:05:43;;;;;;;17.33;11.50;;;8.00;99.90;;;;;;4995665;28;20370;-84
2022/03/14 01:08:09;;;;;;;20.75;11.98;;;7.80;99.90;;;;;;4994826;28;20084;-84
2022/03/14 01:10:35;;;;;;;19.38;12.75;;;7.80;99.90;;;;;;4994809;28;20073;-84
2022/03/14 01:13:02;;;;;;;16.83;11.90;;;8.00;99.90;;;;;;4994369;28;20045;-85
2022/03/14 01:15:29;;;;;;;22.52;12.75;;;7.80;99.90;;;;;;4995517;28;20076;-85
2022/03/14 01:17:56;;;;;;;17.55;12.52;;;7.80;99.90;;;;;;4994932;28;20049;-85
2022/03/14 01:20:22;;;;;;;16.02;11.57;;;7.80;99.90;;;;;;5011002;28;20553;-85
2022/03/14 01:22:47;;;;;;;16.13;12.00;;;8.30;99.90;;;;;;4995881;28;20187;-85
2022/03/14 01:25:13;;;;;;;17.58;12.52;;;7.80;99.90;;;;;;5010492;28;20049;-87
2022/03/14 01:27:45;;;;;;;20.05;11.32;;;7.80;99.90;;;;;;4995654;28;20098;-85
2022/03/14 01:30:11;;;;;;;17.50;11.38;;;8.50;99.90;;;;;;5010814;28;20053;-86
2022/03/14 01:32:47;;;;;;;18.50;12.32;;;7.80;99.90;;;;;;4995338;28;20532;-85
2022/03/14 01:35:13;;;;;;;17.98;12.50;;;8.30;99.90;;;;;;5010566;28;20045;-85
2022/03/14 01:37:38;;;;;;;16.17;11.50;;;8.30;99.90;;;;;;4994385;28;20088;-84
2022/03/14 01:40:09;;;;;;;17.40;12.27;;;8.70;99.90;;;;;;4994660;28;20060;-85
2022/03/14 01:42:34;;;;;;;15.98;11.68;;;7.90;99.90;;;;;;4994381;28;20087;-85
2022/03/14 01:45:01;;;;;;;16.13;11.82;;;7.80;99.90;;;;;;4994387;28;20083;-85
2022/03/14 01:47:28;;;;;;;17.20;11.63;;;7.90;99.90;;;;;;4994597;28;20056;-85
2022/03/14 01:49:53;;;;;;;18.15;11.48;;;7.80;99.90;;;;;;4995196;28;20049;-85
2022/03/14 01:52:20;;;;;;;16.08;10.95;;;7.80;99.90;;;;;;5009624;28;20432;-85
2022/03/14 01:54:47;;;;;;;16.60;11.30;;;8.60;99.90;;;;;;5011441;28;20041;-85
2022/03/14 01:57:17;;;;;;;15.35;10.80;;;7.80;99.90;;;;;;4993323;28;20053;-85
2022/03/14 01:59:43;;;;;;;17.85;10.95;;;7.50;99.90;;;;;;4994005;28;20056;-85
2022/03/14 02:02:09;;;;;;;15.10;11.02;;;7.80;99.90;;;;;;4993805;28;20057;-85
2022/03/14 02:04:36;;;;;;;15.48;11.02;;;8.60;99.90;;;;;;5027963;28;20060;-84
2022/03/14 02:07:02;;;;;;;14.27;11.07;;;8.50;99.90;;;;;;4993374;28;20045;-84
2022/03/14 02:09:28;;;;;;;15.88;11.13;;;8.00;99.90;;;;;;4993870;28;20052;-84
2022/03/14 02:11:56;;;;;;;14.73;11.20;;;8.40;99.90;;;;;;5010476;28;20053;-84
2022/03/14 02:14:24;;;;;;;18.17;11.40;;;7.90;99.90;;;;;;5008679;28;20083;-85
2022/03/14 02:16:50;;;;;;;16.55;11.85;;;8.60;99.90;;;;;;4994185;28;20049;-83
2022/03/14 02:19:17;;;;;;;15.52;11.50;;;7.90;99.90;;;;;;4993474;28;20405;-84
2022/03/14 02:21:43;;;;;;;15.60;11.25;;;7.80;99.90;;;;;;4994086;28;20485;-84
2022/03/14 02:24:09;;;;;;;17.80;11.00;;;7.90;99.90;;;;;;5009918;28;20064;-83
2022/03/14 02:26:39;;;;;;;16.25;11.65;;;7.80;99.90;;;;;;4992849;28;20638;-83
2022/03/14 02:29:05;;;;;;;22.40;11.25;;;7.80;99.90;;;;;;4993959;28;20056;-83
2022/03/14 02:31:31;;;;;;;16.58;10.88;;;7.80;99.90;;;;;;5009768;28;20132;-83
2022/03/14 02:33:56;;;;;;;16.35;11.20;;;7.80;99.90;;;;;;5009620;28;20164;-83
2022/03/14 02:36:22;;;;;;;17.73;11.43;;;7.70;99.90;;;;;;5009569;28;20405;-84
2022/03/14 02:38:48;;;;;;;18.73;12.27;;;8.00;99.90;;;;;;5005932;28;20052;-85
2022/03/14 02:41:13;;;;;;;16.40;12.25;;;7.60;99.90;;;;;;5008999;28;20057;-85
2022/03/14 02:43:39;;;;;;;16.25;11.27;;;7.60;99.90;;;;;;5009391;28;20049;-84
2022/03/14 02:46:05;;;;;;;19.85;11.90;;;7.60;99.90;;;;;;4994099;28;20053;-84
2022/03/14 02:48:31;;;;;;;17.92;12.02;;;7.70;99.90;;;;;;4992953;28;20485;-84
2022/03/14 02:50:57;;;;;;;16.67;11.95;;;8.50;99.90;;;;;;4993593;28;20048;-83
2022/03/14 02:53:22;;;;;;;15.32;11.68;;;7.90;99.90;;;;;;5010149;28;20053;-84
2022/03/14 02:55:49;;;;;;;17.23;11.73;;;7.50;99.90;;;;;;5008763;28;20033;-84
2022/03/14 02:58:14;;;;;;;16.58;11.88;;;7.80;99.90;;;;;;4993051;28;20045;-84
2022/03/14 03:00:40;;;;;;;15.95;11.48;;;7.50;99.90;;;;;;5010186;28;20436;-84
2022/03/14 03:03:06;;;;;;;14.88;10.75;;;7.40;99.90;;;;;;5027447;28;20466;-84
2022/03/14 03:05:34;;;;;;;16.58;11.52;;;7.40;99.90;;;;;;5014408;28;20049;-84
2022/03/14 03:08:00;;;;;;;15.60;11.25;;;8.20;99.90;;;;;;5030114;28;20037;-84
2022/03/14 03:10:31;;;;;;;14.93;11.25;;;7.50;99.90;;;;;;5012998;28;20473;-83
2022/03/14 03:12:56;;;;;;;15.73;11.98;;;8.10;99.90;;;;;;5029094;28;20103;-83
2022/03/14 03:15:24;;;;;;;20.48;11.82;;;8.40;99.90;;;;;;5013710;28;20030;-83
2022/03/14 03:17:51;;;;;;;18.02;11.60;;;7.60;99.90;;;;;;4996343;28;20079;-83
2022/03/14 03:20:17;;;;;;;17.20;11.77;;;8.40;99.90;;;;;;4996967;28;20092;-85
2022/03/14 03:22:42;;;;;;;15.70;11.50;;;7.60;99.90;;;;;;5013154;28;20401;-84
2022/03/14 03:25:08;;;;;;;15.88;11.45;;;7.60;99.90;;;;;;4996818;28;20133;-84
2022/03/14 03:27:35;;;;;;;15.75;10.60;;;7.70;99.90;;;;;;5012961;28;20081;-84
2022/03/14 03:30:02;;;;;;;15.35;10.50;;;8.70;99.90;;;;;;5013063;28;20469;-84
2022/03/14 03:32:28;;;;;;;14.32;10.25;;;8.40;99.90;;;;;;5013568;28;20068;-84
2022/03/14 03:34:53;;;;;;;15.23;10.02;;;8.50;99.90;;;;;;5013747;28;20131;-83
2022/03/14 03:37:20;;;;;;;13.18;10.45;;;7.80;99.90;;;;;;5028480;28;20815;-83
2022/03/14 03:39:45;;;;;;;12.68;9.88;;;8.70;99.90;;;;;;5029824;28;20099;-83
2022/03/14 03:42:11;;;;;;;14.30;10.35;;;7.90;99.90;;;;;;4994891;28;20061;-83
2022/03/14 03:44:37;;;;;;;14.18;9.90;;;8.40;99.90;;;;;;5013231;28;20095;-84
2022/03/14 03:47:04;;;;;;;13.20;10.55;;;8.50;99.90;;;;;;5012919;28;20479;-84
2022/03/14 03:49:30;;;;;;;14.15;9.68;;;8.00;99.90;;;;;;5016356;28;20040;-83
2022/03/14 03:51:55;;;;;;;15.10;10.32;;;8.70;99.90;;;;;;5015647;28;20258;-83
2022/03/14 03:54:22;;;;;;;13.43;9.75;;;8.00;99.90;;;;;;5032262;28;20045;-83
2022/03/14 03:56:48;;;;;;;12.73;9.25;;;8.80;99.90;;;;;;5016260;28;20056;-84
2022/03/14 03:59:14;;;;;;;14.38;9.32;;;8.00;99.90;;;;;;5014837;28;20067;-83
2022/03/14 04:01:40;;;;;;;10.98;8.65;;;8.00;99.90;;;;;;5033074;28;20036;-84
2022/03/14 04:04:06;;;;;;;11.57;8.35;;;8.40;99.90;;;;;;5015936;28;20523;-84
2022/03/14 04:06:32;;;;;;;10.60;8.23;;;8.00;99.90;;;;;;5031572;28;20060;-84
2022/03/14 04:09:00;;;;;;;12.00;8.75;;;8.80;99.90;;;;;;5016637;28;20048;-84
2022/03/14 04:11:26;;;;;;;13.10;8.82;;;8.80;99.90;;;;;;5014995;28;20083;-84
2022/03/14 04:13:52;;;;;;;14.25;7.93;;;8.00;99.90;;;;;;5015010;28;20087;-84
2022/03/14 04:16:18;;;;;;;11.02;7.35;;;8.00;99.90;;;;;;5015784;28;20472;-84
2022/03/14 04:18:45;;;;;;;13.18;8.65;;;8.00;99.90;;;;;;5032690;28;20114;-85
2022/03/14 04:21:13;;;;;;;10.80;7.63;;;8.60;99.90;;;;;;5014846;28;20052;-85
2022/03/14 04:23:38;;;;;;;10.13;7.35;;;8.00;99.90;;;;;;5032265;28;20037;-85
2022/03/14 04:26:05;;;;;;;10.90;7.57;;;8.00;99.90;;;;;;5014781;28;20051;-84
2022/03/14 04:28:30;;;;;;;9.80;6.85;;;8.60;99.90;;;;;;5031923;28;20393;-85
2022/03/14 04:30:57;;;;;;;8.73;6.75;;;8.20;99.90;;;;;;5016006;28;20048;-84
2022/03/14 04:33:23;;;;;;;10.88;7.55;;;8.70;99.90;;;;;;5014958;28;20040;-84
2022/03/14 04:35:49;;;;;;;10.07;6.93;;;9.00;99.90;;;;;;5015543;28;20045;-84
2022/03/14 04:38:16;;;;;;;9.70;6.00;;;8.20;99.90;;;;;;5003980;28;20053;-85
2022/03/14 04:40:42;;;;;;;8.27;5.95;;;8.00;99.90;;;;;;4994760;28;20575;-85
2022/03/14 04:43:09;;;;;;;9.98;5.60;;;8.00;99.90;;;;;;5011268;28;20184;-85
2022/03/14 04:45:36;;;;;;;9.35;5.05;;;8.10;99.90;;;;;;4996222;28;20045;-84
2022/03/14 04:48:05;;;;;;;7.13;5.03;;;8.10;99.90;;;;;;4995617;28;20096;-85
2022/03/14 04:50:31;;;;;;;6.97;5.25;;;8.20;99.90;;;;;;5012311;28;20128;-84
2022/03/14 04:52:56;;;;;;;7.63;5.38;;;8.60;99.90;;;;;;4995697;28;20600;-85
2022/03/14 04:55:22;;;;;;;7.82;5.28;;;8.30;99.90;;;;;;4995128;28;20041;-84
2022/03/14 04:57:48;;;;;;;6.72;4.63;;;8.20;99.90;;;;;;4994733;28;20041;-85
2022/03/14 05:00:14;;;;;;;7.80;5.05;;;8.20;99.90;;;;;;4995600;28;20041;-83
2022/03/14 05:02:40;;;;;;;7.97;4.90;;;8.30;99.90;;;;;;4994658;28;20397;-83
2022/03/14 05:05:11;;;;;;;8.40;4.78;;;8.70;99.90;;;;;;4995123;28;20051;-84
2022/03/14 05:07:37;;;;;;;6.70;4.40;;;8.30;99.90;;;;;;4995223;28;20123;-84
2022/03/14 05:10:06;;;;;;;8.32;4.70;;;8.30;99.90;;;;;;4994862;28;20063;-83
2022/03/14 05:12:32;;;;;;;5.82;4.28;;;8.30;99.90;;;;;;4994419;28;20049;-84
2022/03/14 05:14:58;;;;;;;10.00;4.47;;;8.30;99.90;;;;;;5011668;28;20120;-84
2022/03/14 05:17:24;;;;;;;7.75;4.40;;;8.30;99.90;;;;;;4994753;28;20050;-83
2022/03/14 05:19:50;;;;;;;6.78;4.53;;;8.80;99.90;;;;;;4995182;28;20539;-84
2022/03/14 05:22:17;;;;;;;6.32;4.63;;;8.30;99.90;;;;;;4994053;28;20045;-83
2022/03/14 05:24:42;;;;;;;6.88;4.68;;;8.70;99.90;;;;;;4995175;28;20473;-83
2022/03/14 05:27:09;;;;;;;6.38;4.07;;;8.30;99.90;;;;;;4994064;28;20067;-84
2022/03/14 05:29:34;;;;;;;6.68;4.32;;;8.40;99.90;;;;;;4994647;28;20077;-85
2022/03/14 05:32:00;;;;;;;9.13;4.43;;;9.00;99.90;;;;;;5010942;28;20092;-84
2022/03/14 05:34:26;;;;;;;6.07;4.20;;;8.40;99.90;;;;;;5018273;28;20076;-83
2022/03/14 05:36:52;;;;;;;6.40;4.70;;;8.40;99.90;;;;;;5029782;28;20534;-84
2022/03/14 05:39:18;;;;;;;7.00;4.95;;;8.40;99.90;;;;;;5013661;28;20049;-83
2022/03/14 05:41:43;;;;;;;5.47;4.10;;;8.30;99.90;;;;;;5014386;28;20053;-84
2022/03/14 05:44:09;;;;;;;6.80;4.38;;;8.30;99.90;;;;;;5029098;28;20047;-84
2022/03/14 05:46:35;;;;;;;5.32;3.80;;;8.40;99.90;;;;;;5031298;28;20052;-84
2022/03/14 05:49:01;;;;;;;6.35;4.50;;;9.10;99.90;;;;;;5030469;28;20416;-83
2022/03/14 05:51:27;;;;;;;5.47;3.78;;;8.30;99.90;;;;;;5029295;28;20049;-83
2022/03/14 05:53:53;;;;;;;5.50;3.80;;;8.30;99.90;;;;;;5014879;28;20084;-84
2022/03/14 05:56:18;;;;;;;6.55;4.35;;;9.10;99.90;;;;;;5029970;28;20150;-85
2022/03/14 05:58:44;;;;;;;6.10;4.07;;;8.30;99.90;;;;;;5029919;28;20041;-84
2022/03/14 06:01:10;;;;;;;6.60;3.85;;;9.20;99.90;;;;;;5013403;28;20045;-84
2022/03/14 06:03:49;;;;;;;6.65;4.05;;;8.30;99.90;;;;;;5010787;28;20567;-83
2022/03/14 06:06:15;;;;;;;7.95;4.82;;;9.10;99.90;;;;;;4992897;28;20081;-84
2022/03/14 06:08:40;;;;;;;8.32;4.20;;;8.20;99.90;;;;;;4995088;28;20127;-84
2022/03/14 06:11:08;;;;;;;8.13;4.70;;;8.30;99.90;;;;;;4993748;28;20378;-84
2022/03/14 06:13:43;;;;;;;6.05;4.03;;;8.80;99.90;;;;;;4994976;28;20235;-85
2022/03/14 06:16:09;;;;;;;7.90;4.57;;;8.20;99.90;;;;;;5009471;28;20496;-84
2022/03/14 06:18:35;;;;;;;5.78;4.25;;;8.20;99.90;;;;;;5010358;28;20064;-85
2022/03/14 06:21:00;;;;;;;7.63;4.20;;;8.40;99.90;;;;;;4994369;28;20608;-84
2022/03/14 06:23:26;;;;;;;9.93;4.32;;;8.40;99.90;;;;;;4994501;28;20041;-84
2022/03/14 06:25:54;;;;;;;7.35;4.47;;;8.20;99.90;;;;;;4993444;28;20075;-84
2022/03/14 06:28:21;;;;;;;7.07;4.30;;;8.40;99.90;;;;;;5010035;28;20049;-85
2022/03/14 06:30:47;;;;;;;8.35;4.30;;;8.20;99.90;;;;;;4994656;28;20076;-85
2022/03/14 06:33:12;;;;;;;6.60;4.07;;;8.20;99.90;;;;;;4992565;28;20085;-84
2022/03/14 06:35:40;;;;;;;6.20;4.53;;;8.30;99.90;;;;;;4994547;28;20393;-84
2022/03/14 06:38:15;;;;;;;5.90;4.05;;;8.90;99.90;;;;;;4994072;28;20037;-84
2022/03/14 06:40:41;;;;;;;8.70;4.10;;;8.60;99.90;;;;;;4992873;28;20135;-84
2022/03/14 06:43:08;;;;;;;7.05;4.40;;;8.20;99.90;;;;;;4993085;28;20084;-85
2022/03/14 06:45:33;;;;;;;7.40;4.25;;;8.20;99.90;;;;;;4978384;28;20662;-85
2022/03/14 06:48:00;;;;;;;6.93;4.60;;;8.20;99.90;;;;;;5006204;28;20107;-87
2022/03/14 06:50:27;;;;;;;7.95;4.32;;;8.20;99.90;;;;;;5008451;28;20123;-85
2022/03/14 06:52:53;;;;;;;7.35;4.65;;;9.00;99.90;;;;;;5011262;28;20441;-84
2022/03/14 06:55:18;;;;;;;6.40;4.38;;;9.30;99.90;;;;;;5010366;28;20075;-84
2022/03/14 06:57:50;;;;;;;7.50;4.53;;;8.30;99.90;;;;;;5011175;28;20051;-84
2022/03/14 07:00:32;;;;;;;7.35;4.40;;;7.70;99.90;;;;;;5012072;28;20053;-85
2022/03/14 07:02:57;;;;;;;6.43;4.38;;;8.30;99.90;;;;;;5027325;28;20056;-85
2022/03/14 07:05:25;;;;;;;6.50;4.72;;;8.30;99.90;;;;;;5027985;28;20049;-85
2022/03/14 07:07:57;;;;;;;6.10;4.43;;;8.30;99.90;;;;;;5010476;28;20585;-85
2022/03/14 07:10:23;;;;;;;8.13;5.05;;;8.40;99.90;;;;;;5011151;28;20044;-84
2022/03/14 07:12:50;;;;;;;5.70;4.53;;;9.40;99.90;;;;;;5010147;28;20558;-85
2022/03/14 07:15:28;;;;;;;6.60;4.57;;;9.00;99.90;;;;;;5011097;28;20037;-85
2022/03/14 07:17:54;;;;;;;8.75;4.75;;;8.40;99.90;;;;;;5009626;28;20044;-84
2022/03/14 07:20:33;;;;;;;6.40;4.63;;;8.80;99.90;;;;;;5011093;28;20103;-84
2022/03/14 07:23:01;;;;;;;7.22;4.70;;;8.50;99.90;;;;;;5009945;28;20040;-85
2022/03/14 07:25:28;;;;;;;6.45;4.78;;;8.50;99.90;;;;;;5007065;28;20033;-84
2022/03/14 07:28:05;;;;;;;9.77;5.22;;;8.50;99.90;;;;;;5010606;28;20139;-84
2022/03/14 07:30:31;;;;;;;9.77;5.32;;;8.50;99.90;;;;;;5008295;28;20072;-84
2022/03/14 07:32:57;;;;;;;9.73;5.22;;;8.90;99.90;;;;;;5010728;28;20049;-83
2022/03/14 07:35:24;;;;;;;7.63;5.55;;;9.40;99.90;;;;;;5009823;28;20059;-83
2022/03/14 07:37:50;;;;;;;8.27;5.00;;;8.60;99.90;;;;;;5009478;28;20072;-83
2022/03/14 07:40:22;;;;;;;8.50;5.90;;;8.60;99.90;;;;;;5010071;28;20072;-83
2022/03/14 07:42:51;;;;;;;7.55;5.78;;;8.60;99.90;;;;;;5025433;28;20132;-84
2022/03/14 07:45:21;;;;;;;9.77;6.10;;;8.70;99.90;;;;;;5009870;28;20060;-83
2022/03/14 07:47:47;;;;;;;8.07;6.00;;;8.70;99.90;;;;;;5010901;28;20400;-82
2022/03/14 07:50:15;;;;;;;7.35;5.28;;;8.80;99.90;;;;;;5029163;28;20052;-84
2022/03/14 07:52:42;;;;;;;9.05;5.55;;;9.30;99.90;;;;;;5013960;28;20048;-83
2022/03/14 07:55:09;;;;;;;8.25;5.82;;;9.10;99.90;;;;;;5013768;28;20045;-85
2022/03/14 07:57:35;;;;;;;8.20;5.50;;;8.80;99.90;;;;;;5029329;28;20458;-84
2022/03/14 08:00:04;;;;;;;9.18;6.03;;;8.80;99.90;;;;;;5013987;28;20400;-84
2022/03/14 08:02:30;;;;;;;7.65;5.45;;;8.80;99.90;;;;;;5011374;28;20447;-85
2022/03/14 08:04:56;;;;;;;8.95;5.88;;;8.80;99.90;;;;;;5015740;28;20156;-79
2022/03/14 08:07:34;;;;;;;8.88;5.78;;;8.80;99.90;;;;;;5028087;28;20052;-84
2022/03/14 08:10:01;;;;;;;9.75;6.00;;;9.10;99.90;;;;;;5018957;28;20064;-83
2022/03/14 08:12:26;;;;;;;9.00;5.78;;;8.70;99.90;;;;;;4997119;28;20072;-83
2022/03/14 08:14:52;;;;;;;7.53;5.57;;;8.70;99.90;;;;;;5011615;28;20047;-83
2022/03/14 08:17:18;;;;;;;10.00;6.22;;;8.70;99.90;;;;;;5014841;28;20100;-83
2022/03/14 08:19:44;;;;;;;7.72;5.47;;;8.70;99.90;;;;;;5006574;28;20390;-83
2022/03/14 08:22:11;;;;;;;8.38;6.30;;;8.80;99.90;;;;;;5005019;28;20098;-83
2022/03/14 08:24:37;;;;;;;8.07;5.97;;;8.70;99.90;;;;;;5005225;28;20460;-83
2022/03/14 08:27:03;;;;;;;8.35;5.80;;;8.60;99.90;;;;;;5006239;28;20524;-83
2022/03/14 08:29:29;;;;;;;9.63;6.80;;;8.70;99.90;;;;;;5005171;28;20084;-83
2022/03/14 08:31:58;;;;;;;8.20;6.57;;;8.90;99.90;;;;;;5002734;28;20041;-84
2022/03/14 08:34:25;;;;;;;8.57;6.35;;;9.00;99.90;;;;;;5014817;28;20088;-84
2022/03/14 08:36:51;;;;;;;8.13;6.10;;;8.70;99.90;;;;;;5002537;28;20437;-84
2022/03/14 08:39:17;;;;;;;9.07;6.70;;;8.80;99.90;;;;;;5009059;28;20717;-83
2022/03/14 08:41:43;;;;;;;10.25;6.82;;;8.80;99.90;;;;;;5014394;28;20095;-83
2022/03/14 08:44:09;;;;;;;8.88;6.60;;;9.60;99.90;;;;;;5019958;28;20037;-82
2022/03/14 08:46:35;;;;;;;8.80;6.35;;;8.90;99.90;;;;;;5006417;28;20466;-82
2022/03/14 08:49:03;;;;;;;9.85;7.30;;;9.80;99.90;;;;;;5022856;28;20038;-82
2022/03/14 08:51:28;;;;;;;10.00;6.65;;;8.90;99.90;;;;;;5007310;28;20072;-83
2022/03/14 08:53:54;;;;;;;10.05;6.97;;;9.70;99.90;;;;;;5003712;28;20045;-83
2022/03/14 08:56:20;;;;;;;8.07;6.47;;;9.20;99.90;;;;;;5014192;28;20060;-84
2022/03/14 08:58:46;;;;;;;11.70;6.45;;;9.20;99.90;;;;;;5021473;28;20043;-83
2022/03/14 09:01:12;;;;;;;10.38;7.25;;;9.00;99.90;;;;;;5007017;28;20037;-83
2022/03/14 09:03:38;;;;;;;9.77;7.00;;;9.10;99.90;;;;;;5006659;28;20423;-82
2022/03/14 09:06:05;;;;;;;10.90;6.53;;;9.60;99.90;;;;;;5013419;28;20053;-83
2022/03/14 09:08:31;;;;;;;10.10;7.07;;;10.00;99.90;;;;;;5006305;28;20033;-83
2022/03/14 09:11:01;;;;;;;11.55;7.90;;;9.20;99.90;;;;;;5009296;28;20064;-84
2022/03/14 09:13:28;;;;;;;11.85;7.30;;;9.20;99.90;;;;;;4998367;28;20045;-83
2022/03/14 09:15:54;;;;;;;10.07;7.00;;;9.20;99.90;;;;;;5009351;28;20045;-84
2022/03/14 09:18:21;;;;;;;9.77;7.15;;;9.30;99.90;;;;;;5013843;28;20047;-84
2022/03/14 09:20:48;;;;;;;9.13;6.88;;;9.40;99.90;;;;;;5023670;28;20044;-84
2022/03/14 09:23:13;;;;;;;9.75;7.18;;;9.50;99.90;;;;;;4995919;28;20049;-84
2022/03/14 09:25:39;;;;;;;11.85;7.65;;;9.80;99.90;;;;;;5005089;28;20041;-83
2022/03/14 09:28:05;;;;;;;9.35;7.50;;;9.90;99.90;;;;;;5027539;28;20059;-84
2022/03/14 09:30:31;;;;;;;11.18;8.18;;;9.90;99.90;;;;;;5001395;28;20492;-84
2022/03/14 09:32:57;;;;;;;11.07;7.90;;;9.80;99.90;;;;;;5011877;28;20049;-83
2022/03/14 09:35:24;;;;;;;13.55;8.57;;;9.60;99.90;;;;;;5015179;28;20046;-84
2022/03/14 09:37:50;;;;;;;11.15;8.23;;;10.10;99.90;;;;;;5030591;28;20558;-84
2022/03/14 09:40:20;;;;;;;11.32;8.70;;;9.70;99.90;;;;;;5004960;28;20069;-84
2022/03/14 09:42:49;;;;;;;12.38;8.70;;;9.80;99.90;;;;;;5009399;28;20049;-83
2022/03/14 09:45:15;;;;;;;13.80;8.52;;;9.70;99.90;;;;;;4998916;28;20103;-84
2022/03/14 09:47:44;;;;;;;10.90;8.70;;;10.00;99.90;;;;;;4997414;28;20050;-83
2022/03/14 09:50:14;;;;;;;11.60;9.30;;;9.80;99.90;;;;;;5009927;28;20045;-84
2022/03/14 09:52:43;;;;;;;12.50;10.30;;;9.70;99.90;;;;;;5002959;28;20045;-85
2022/03/14 09:55:11;;;;;;;13.75;10.20;;;9.70;99.90;;;;;;5020712;28;20049;-84
2022/03/14 09:57:38;;;;;;;13.23;10.30;;;9.70;99.90;;;;;;5012369;28;20373;-84
2022/03/14 10:00:12;;;;;;;14.15;11.75;;;10.30;99.90;;;;;;5000955;28;20532;-84
2022/03/14 10:02:39;;;;;;;13.07;10.60;;;9.70;99.90;;;;;;5023460;28;20043;-84
2022/03/14 10:05:08;;;;;;;14.27;11.10;;;9.70;99.90;;;;;;5009260;28;20148;-84
2022/03/14 10:07:35;;;;;;;13.93;10.68;;;9.70;99.90;;;;;;5010930;28;20041;-84
2022/03/14 10:10:01;;;;;;;12.60;10.48;;;9.70;99.90;;;;;;5001143;28;20485;-85
2022/03/14 10:12:27;;;;;;;13.48;10.50;;;9.70;99.90;;;;;;5008614;28;20051;-84
2022/03/14 10:14:53;;;;;;;12.88;10.77;;;9.60;99.90;;;;;;5012064;28;20041;-84
2022/03/14 10:17:18;;;;;;;12.23;10.02;;;9.60;99.90;;;;;;5015902;28;20045;-85
2022/03/14 10:19:54;;;;;;;13.73;11.02;;;9.60;99.90;;;;;;5020075;28;20139;-84
2022/03/14 10:22:44;;;;;;;17.45;13.15;;;9.50;99.90;;;;;;5007640;28;20048;-84
2022/03/14 10:25:13;;;;;;;17.10;12.18;;;9.50;99.90;;;;;;4999129;28;20041;-84
2022/03/14 10:27:45;;;;;;;18.90;12.25;;;9.40;99.90;;;;;;5002161;28;20408;-84
2022/03/14 10:30:26;;;;;;;19.75;13.20;;;9.30;99.90;;;;;;5020392;28;20119;-84
2022/03/14 10:33:01;;;;;;;22.35;15.00;;;9.20;99.90;;;;;;5012354;28;20048;-84
2022/03/14 10:35:35;;;;;;;22.92;15.55;;;10.10;99.90;;;;;;5027234;28;20052;-84
2022/03/14 10:38:04;;;;;;;24.50;14.80;;;9.20;99.90;;;;;;5013711;28;20046;-82
2022/03/14 10:40:39;;;;;;;22.27;14.60;;;9.20;99.90;;;;;;5015383;28;20053;-83
2022/03/14 10:43:08;;;;;;;25.17;15.27;;;9.10;99.90;;;;;;5010185;28;20131;-83
2022/03/14 10:45:37;;;;;;;23.83;15.48;;;9.20;99.90;;;;;;5028518;28;20049;-84
2022/03/14 10:48:04;;;;;;;26.00;16.55;;;9.20;99.90;;;;;;5008383;28;20503;-85
2022/03/14 10:50:33;;;;;;;25.65;16.08;;;9.20;99.90;;;;;;5030482;28;20045;-85
2022/03/14 10:53:03;;;;;;;25.58;15.82;;;9.20;99.90;;;;;;5012934;28;20387;-83
2022/03/14 10:55:41;;;;;;;26.25;15.80;;;9.30;99.90;;;;;;5020865;28;20393;-83
2022/03/14 10:58:10;;;;;;;26.27;15.25;;;9.40;99.90;;;;;;5009891;28;20050;-84
2022/03/14 11:00:45;;;;;;;34.60;15.55;;;9.60;99.90;;;;;;4997142;28;20080;-84
2022/03/14 11:03:11;;;;;;;27.23;13.10;;;9.50;99.90;;;;;;5019529;28;20074;-85
2022/03/14 11:05:44;;;;;;;24.52;13.70;;;9.90;99.90;;;;;;5012146;28;20044;-85
2022/03/14 11:08:37;;;;;;;21.40;11.93;;;9.60;99.90;;;;;;5027300;28;20496;-84
2022/03/14 11:11:06;;;;;;;;;;;9.60;99.90;;;;;;5022191;28;20040;-84
2022/03/14 11:13:36;;;;;;;26.92;12.30;;;9.10;99.90;;;;;;4993650;28;19960;-84
2022/03/14 11:16:02;;;;;;;24.42;12.27;;;9.60;99.90;;;;;;5016147;28;20401;-84
2022/03/14 11:18:29;;;;;;;24.05;11.48;;;9.60;99.90;;;;;;5012869;28;20441;-84
2022/03/14 11:20:57;;;;;;;23.60;12.50;;;9.60;99.90;;;;;;4999530;28;20064;-84
2022/03/14 11:23:24;;;;;;;30.10;12.40;;;9.50;99.90;;;;;;5022528;28;20047;-84
2022/03/14 11:25:51;;;;;;;24.65;10.75;;;9.40;99.90;;;;;;5006273;28;20045;-85
2022/03/14 11:28:20;;;;;;;18.85;9.80;;;9.70;99.90;;;;;;4996452;28;20100;-84
2022/03/14 11:30:56;;;;;;;26.52;11.23;;;9.30;99.90;;;;;;5015177;28;20049;-85
2022/03/14 11:33:32;;;;;;;21.98;11.10;;;9.40;99.90;;;;;;4997306;28;20049;-84
2022/03/14 11:36:00;;;;;;;26.52;11.05;;;9.40;99.90;;;;;;5016999;28;20037;-84
2022/03/14 11:38:28;;;;;;;27.85;11.30;;;9.60;99.90;;;;;;5024643;28;20044;-84
2022/03/14 11:43:48;;;;;;;22.27;9.43;;;9.50;99.90;;;;;;5029852;28;20049;-85
2022/03/14 11:46:15;;;;;;;28.65;10.95;;;9.50;99.90;;;;;;5004106;28;20393;-85
2022/03/14 11:48:41;;;;;;;20.67;10.38;;;9.50;99.90;;;;;;5011922;28;20504;-85
2022/03/14 11:51:06;;;;;;;21.95;10.15;;;9.50;99.90;;;;;;5003780;28;20515;-86
2022/03/14 11:53:35;;;;;;;26.73;11.23;;;9.50;99.90;;;;;;5016946;28;20037;-84
2022/03/14 11:56:05;;;;;;;21.30;10.80;;;9.50;99.90;;;;;;5008773;28;20028;-87
2022/03/14 11:58:40;;;;;;;25.90;10.82;;;9.50;99.90;;;;;;4998052;28;20045;-86
2022/03/14 12:01:15;;;;;;;27.83;12.68;;;9.60;99.90;;;;;;5018953;28;20103;-87
2022/03/14 12:03:46;;;;;;;25.00;10.13;;;9.60;99.90;;;;;;5005818;28;20450;-86
2022/03/14 12:06:11;;;;;;;19.65;8.90;;;9.60;99.90;;;;;;4996077;28;20108;-87
2022/03/14 12:08:37;;;;;;;25.80;9.45;;;9.60;99.90;;;;;;5010426;28;20514;-87
2022/03/14 12:11:36;;;;;;;23.85;8.65;;;9.60;99.90;;;;;;5008769;28;20037;-85
2022/03/14 12:14:03;;;;;;;19.48;8.77;;;9.70;99.90;;;;;;5004875;28;20041;-87
2022/03/14 12:16:37;;;;;;;19.27;7.88;;;9.70;99.90;;;;;;5005406;28;20042;-86
2022/03/14 12:19:27;;;;;;;17.55;8.55;;;9.70;99.90;;;;;;4997874;28;20059;-87
2022/03/14 12:22:06;;;;;;;24.60;9.20;;;9.70;99.90;;;;;;5010629;28;20045;-87
2022/03/14 12:24:34;;;;;;;17.80;9.70;;;9.70;99.90;;;;;;4998927;28;20045;-87
2022/03/14 12:27:26;;;;;;;21.10;9.40;;;9.60;99.90;;;;;;5000072;28;20044;-87
2022/03/14 12:29:57;;;;;;;21.45;9.88;;;9.60;99.90;;;;;;5010480;28;20040;-87
2022/03/14 12:32:38;;;;;;;22.73;10.48;;;9.70;99.90;;;;;;4997746;28;20095;-87
2022/03/14 12:35:12;;;;;;;22.27;10.38;;;9.60;99.90;;;;;;4998254;28;20040;-87
2022/03/14 12:37:38;;;;;;;22.52;10.45;;;9.60;99.90;;;;;;4996205;28;20088;-86
2022/03/14 12:40:15;;;;;;;26.45;10.48;;;9.60;99.90;;;;;;5018558;28;20455;-87
2022/03/14 12:42:50;;;;;;;24.38;11.20;;;9.60;99.90;;;;;;5001557;28;20115;-86
2022/03/14 12:46:03;;;;;;;24.17;11.00;;;9.60;99.90;;;;;;4995549;28;20045;-86
2022/03/14 12:48:32;;;;;;;26.33;12.55;;;9.70;99.90;;;;;;4961235;28;20058;-86
2022/03/14 12:51:01;;;;;;;21.90;12.35;;;9.80;99.90;;;;;;4995859;28;20083;-86
2022/03/14 12:53:29;;;;;;;21.50;12.45;;;9.90;99.90;;;;;;4995928;28;20405;-87